Time;durP1;ratioP1;P1;durP2;ratioP2;P2;SDS_P1;SDS_P2;PMS_P1;PMS_P2;Temp;Humidity;BMP_temperature;BMP_pressure;BME280_temperature;BME280_humidity;BME280_pressure;Samples;Min_cycle;Max_cycle;Signal;HPM_P1;HPM_P2
2022/06/04 00:02:11;;;;;;;13.48;11.05;;;20.70;96.40;;;;;;5116113;28;20038;-53
2022/06/04 00:04:55;;;;;;;8.13;7.50;;;20.60;96.00;;;;;;5115886;28;20510;-55
2022/06/04 00:07:39;;;;;;;8.20;7.40;;;20.50;95.10;;;;;;5116027;28;20038;-55
2022/06/04 00:16:36;;;;;;;17.08;13.65;;;20.40;96.60;;;;;;5114865;27;20023;-55
2022/06/04 00:19:21;;;;;;;9.88;8.98;;;20.40;97.20;;;;;;5114992;28;20442;-53
2022/06/04 00:22:06;;;;;;;10.10;9.27;;;20.20;97.50;;;;;;5115714;28;20116;-53
2022/06/04 00:24:50;;;;;;;11.15;10.05;;;20.10;98.80;;;;;;5115710;28;20395;-52
2022/06/04 00:27:34;;;;;;;10.75;9.75;;;19.90;99.50;;;;;;5115361;28;20063;-53
2022/06/04 00:30:19;;;;;;;27.50;19.80;;;19.80;99.90;;;;;;5115231;28;20082;-53
2022/06/04 00:33:04;;;;;;;36.60;22.13;;;19.80;99.90;;;;;;5114679;28;20089;-51
2022/06/04 00:35:52;;;;;;;15.77;12.98;;;19.80;99.90;;;;;;5114512;28;20027;-54
2022/06/04 00:38:36;;;;;;;11.88;10.70;;;19.90;99.90;;;;;;5114782;28;20031;-54
2022/06/04 00:41:20;;;;;;;;;;;19.90;99.90;;;;;;5115157;28;20030;-55
2022/06/04 00:44:31;;;;;;;13.10;10.23;;;19.90;99.90;;;;;;5126996;27;19938;-52
2022/06/04 00:47:27;;;;;;;9.73;8.48;;;19.90;99.90;;;;;;5100780;27;20456;-54
2022/06/04 00:50:14;;;;;;;10.60;9.32;;;19.70;99.90;;;;;;5136860;27;20029;-54
2022/06/04 00:53:01;;;;;;;9.75;8.85;;;19.70;99.90;;;;;;5135155;27;20402;-53
2022/06/04 00:55:58;;;;;;;10.70;9.68;;;19.70;99.90;;;;;;5135531;27;20087;-52
2022/06/04 00:58:54;;;;;;;10.35;9.32;;;19.80;99.90;;;;;;5135172;27;20029;-56
2022/06/04 01:02:12;;;;;;;11.25;9.40;;;19.90;99.90;;;;;;5135724;27;20029;-49
2022/06/04 01:05:38;;;;;;;10.27;9.25;;;20.00;99.90;;;;;;5119888;27;20034;-50
2022/06/04 01:08:39;;;;;;;9.85;8.95;;;19.80;99.90;;;;;;5100780;27;20505;-50
2022/06/04 01:12:12;;;;;;;9.73;8.82;;;19.50;99.90;;;;;;5135863;27;20397;-51
2022/06/04 01:15:07;;;;;;;9.43;8.30;;;19.30;99.90;;;;;;5126334;27;20029;-54
2022/06/04 01:18:14;;;;;;;9.77;8.75;;;19.20;99.90;;;;;;5135334;27;20104;-48
2022/06/04 01:21:35;;;;;;;10.45;9.55;;;19.30;99.90;;;;;;5135761;27;20054;-52
2022/06/04 01:24:26;;;;;;;9.45;8.65;;;18.90;99.90;;;;;;5136871;27;20065;-51
2022/06/04 01:27:19;;;;;;;9.50;8.70;;;18.80;99.90;;;;;;5135394;27;20564;-49
2022/06/04 01:30:30;;;;;;;9.80;8.80;;;18.70;99.90;;;;;;5135344;27;20087;-52
2022/06/04 01:33:20;;;;;;;8.45;7.70;;;18.50;99.70;;;;;;5135378;27;20042;-49
2022/06/04 01:36:17;;;;;;;9.68;7.45;;;18.40;99.80;;;;;;5135700;27;20064;-53
2022/06/04 01:39:11;;;;;;;7.63;6.82;;;18.50;99.30;;;;;;5135302;27;20647;-52
2022/06/04 01:42:00;;;;;;;8.18;7.47;;;18.60;98.90;;;;;;5126337;27;20498;-51
2022/06/04 01:44:46;;;;;;;8.75;7.80;;;18.80;98.10;;;;;;5127240;27;20046;-52
2022/06/04 01:47:32;;;;;;;8.40;7.32;;;18.80;98.40;;;;;;5134611;27;20068;-52
2022/06/04 01:50:24;;;;;;;8.52;7.63;;;18.80;98.50;;;;;;5134843;27;20038;-52
2022/06/04 01:53:11;;;;;;;8.73;7.90;;;18.80;98.30;;;;;;5134633;27;20072;-47
2022/06/04 01:55:59;;;;;;;8.05;7.25;;;18.90;98.50;;;;;;5134408;27;20414;-50
2022/06/04 01:59:14;;;;;;;8.20;7.40;;;18.80;98.30;;;;;;5134348;27;20030;-50
2022/06/04 02:02:01;;;;;;;7.72;7.03;;;18.90;98.70;;;;;;5134850;27;20076;-54
2022/06/04 02:04:53;;;;;;;8.65;6.50;;;18.80;98.20;;;;;;5134497;27;20031;-50
2022/06/04 02:07:42;;;;;;;8.93;6.85;;;18.80;98.10;;;;;;5134481;27;20062;-54
2022/06/04 02:10:38;;;;;;;7.55;6.70;;;18.90;98.10;;;;;;5134226;27;20383;-49
2022/06/04 02:13:22;;;;;;;7.80;7.03;;;19.00;98.70;;;;;;5134686;27;20132;-51
2022/06/04 02:16:28;;;;;;;7.93;7.03;;;18.90;97.90;;;;;;5133791;27;20378;-50
2022/06/04 02:19:13;;;;;;;8.05;7.28;;;18.80;97.60;;;;;;5134196;27;20042;-53
2022/06/04 02:21:58;;;;;;;;;;;18.70;97.20;;;;;;5134468;27;20057;-52
2022/06/04 02:24:43;;;;;;;7.70;7.00;;;18.60;97.10;;;;;;5134635;27;19909;-53
2022/06/04 02:27:28;;;;;;;7.35;6.75;;;18.40;97.00;;;;;;5118060;27;20100;-53
2022/06/04 02:30:13;;;;;;;6.88;6.18;;;18.30;97.00;;;;;;5135179;27;20121;-55
2022/06/04 02:33:16;;;;;;;8.70;6.43;;;18.30;97.00;;;;;;5135693;27;20085;-56
2022/06/04 02:36:08;;;;;;;7.78;6.72;;;18.40;97.20;;;;;;5134238;27;20073;-57
2022/06/04 02:39:07;;;;;;;9.75;8.75;;;18.40;97.10;;;;;;5133897;27;20046;-50
2022/06/04 02:42:21;;;;;;;7.70;6.95;;;18.40;97.10;;;;;;5124320;27;20034;-53
2022/06/04 02:45:36;;;;;;;7.45;6.68;;;18.50;98.30;;;;;;5113217;28;20046;-52
2022/06/04 02:48:20;;;;;;;;;;;18.40;98.40;;;;;;5113644;28;20116;-52
2022/06/04 02:51:12;;;;;;;6.75;6.07;;;18.50;97.70;;;;;;5113043;28;19910;-52
2022/06/04 02:53:56;;;;;;;7.55;6.50;;;18.50;96.90;;;;;;5112926;28;20035;-51
2022/06/04 02:56:43;;;;;;;8.05;6.80;;;18.50;96.60;;;;;;5114911;28;20406;-52
2022/06/04 02:59:29;;;;;;;7.45;6.75;;;18.50;96.70;;;;;;5116356;28;20442;-52
2022/06/04 03:02:15;;;;;;;8.57;6.30;;;18.50;96.80;;;;;;5117007;28;20034;-53
2022/06/04 03:05:11;;;;;;;7.43;6.50;;;18.40;96.80;;;;;;5117564;28;20070;-56
2022/06/04 03:08:01;;;;;;;7.20;6.60;;;18.40;96.70;;;;;;5101338;28;20081;-56
2022/06/04 03:10:46;;;;;;;7.53;6.82;;;18.40;97.50;;;;;;5116717;28;20050;-55
2022/06/04 03:13:30;;;;;;;7.47;6.55;;;18.40;97.80;;;;;;5101698;28;20171;-53
2022/06/04 03:16:16;;;;;;;8.55;7.68;;;18.30;98.30;;;;;;5116936;28;20119;-55
2022/06/04 03:19:00;;;;;;;8.82;6.95;;;18.30;98.50;;;;;;5101303;28;20088;-57
2022/06/04 03:21:44;;;;;;;7.97;6.75;;;18.30;98.20;;;;;;5117726;28;20027;-56
2022/06/04 03:24:29;;;;;;;7.50;6.80;;;18.20;98.60;;;;;;5117781;28;20640;-56
2022/06/04 03:27:13;;;;;;;8.10;7.13;;;18.10;98.40;;;;;;5116657;28;20046;-55
2022/06/04 03:29:57;;;;;;;7.47;6.75;;;18.00;97.90;;;;;;5117069;28;20042;-55
2022/06/04 03:32:41;;;;;;;7.30;6.60;;;18.00;97.60;;;;;;5116849;28;20047;-56
2022/06/04 03:35:25;;;;;;;7.30;6.60;;;18.00;97.40;;;;;;5115848;28;20779;-56
2022/06/04 03:38:10;;;;;;;8.82;7.15;;;18.00;97.60;;;;;;5116007;28;20115;-58
2022/06/04 03:40:54;;;;;;;7.15;6.55;;;17.90;97.60;;;;;;5117274;28;20023;-57
2022/06/04 03:43:38;;;;;;;8.15;6.63;;;17.90;98.20;;;;;;5123679;27;20108;-57
2022/06/04 03:46:27;;;;;;;7.22;6.40;;;18.00;98.00;;;;;;5136789;27;20073;-57
2022/06/04 03:49:11;;;;;;;7.05;6.45;;;18.00;97.80;;;;;;5137243;27;20038;-55
2022/06/04 03:51:56;;;;;;;7.60;6.80;;;18.00;97.60;;;;;;5136663;27;20057;-55
2022/06/04 03:54:52;;;;;;;8.93;6.75;;;17.90;97.50;;;;;;5137400;27;20557;-55
2022/06/04 03:57:41;;;;;;;6.75;6.13;;;17.90;97.90;;;;;;5135720;27;20079;-56
2022/06/04 04:00:30;;;;;;;7.57;6.88;;;17.90;97.50;;;;;;5135972;27;20152;-52
2022/06/04 04:03:16;;;;;;;8.63;6.80;;;17.70;98.00;;;;;;5136381;27;20354;-56
2022/06/04 04:06:01;;;;;;;7.63;6.82;;;17.70;97.90;;;;;;5136146;27;20039;-52
2022/06/04 04:08:45;;;;;;;7.05;6.35;;;17.70;98.00;;;;;;5135368;27;20437;-56
2022/06/04 04:11:29;;;;;;;6.28;5.68;;;17.80;97.60;;;;;;5136392;27;20092;-56
2022/06/04 04:14:13;;;;;;;6.88;6.22;;;17.80;97.90;;;;;;5136887;27;20046;-57
2022/06/04 04:16:58;;;;;;;7.47;6.78;;;17.90;97.30;;;;;;5120400;27;20088;-58
2022/06/04 04:19:42;;;;;;;7.50;6.70;;;17.90;97.20;;;;;;5136352;27;20734;-55
2022/06/04 04:22:26;;;;;;;7.30;6.60;;;17.90;97.50;;;;;;5120366;27;20034;-56
2022/06/04 04:25:12;;;;;;;8.73;6.47;;;17.80;97.80;;;;;;5135510;27;20027;-58
2022/06/04 04:27:57;;;;;;;7.05;6.30;;;17.80;97.40;;;;;;5135369;27;20047;-54
2022/06/04 04:30:41;;;;;;;8.40;6.70;;;17.80;97.20;;;;;;5136207;27;20065;-55
2022/06/04 04:33:27;;;;;;;7.28;6.57;;;17.60;97.30;;;;;;5135883;27;20521;-56
2022/06/04 04:36:12;;;;;;;7.70;7.00;;;17.50;97.40;;;;;;5135159;27;20045;-56
2022/06/04 04:38:57;;;;;;;7.07;6.15;;;17.50;97.50;;;;;;5136211;27;20517;-54
2022/06/04 04:41:42;;;;;;;6.55;5.95;;;17.50;97.40;;;;;;5127864;27;20110;-55
2022/06/04 04:44:26;;;;;;;6.78;6.18;;;17.60;97.40;;;;;;5114142;28;20030;-56
2022/06/04 04:47:11;;;;;;;;;;;17.60;97.20;;;;;;5115403;28;20062;-59
2022/06/04 04:49:55;;;;;;;6.80;5.93;;;17.50;97.70;;;;;;5116382;28;20026;-56
2022/06/04 04:52:39;;;;;;;7.15;6.28;;;17.40;97.70;;;;;;5115554;28;20061;-57
2022/06/04 04:55:25;;;;;;;6.78;5.85;;;17.40;97.30;;;;;;5114515;28;20470;-58
2022/06/04 04:58:09;;;;;;;7.10;6.00;;;17.50;97.30;;;;;;5113567;28;20023;-56
2022/06/04 05:00:53;;;;;;;7.88;6.10;;;17.60;97.00;;;;;;5114354;28;20030;-56
2022/06/04 05:03:38;;;;;;;6.47;5.88;;;17.60;97.20;;;;;;5114873;28;20050;-56
2022/06/04 05:06:23;;;;;;;6.70;6.00;;;17.70;96.90;;;;;;5114447;28;20382;-53
2022/06/04 05:09:09;;;;;;;6.70;6.10;;;17.50;97.10;;;;;;5116087;28;20714;-58
2022/06/04 05:11:53;;;;;;;7.10;6.13;;;17.40;97.30;;;;;;5114725;28;20162;-56
2022/06/04 05:14:38;;;;;;;6.55;6.00;;;17.40;97.60;;;;;;5115092;28;20030;-53
2022/06/04 05:17:22;;;;;;;6.93;6.22;;;17.40;97.50;;;;;;5113761;28;20053;-55
2022/06/04 05:20:06;;;;;;;6.85;6.22;;;17.50;97.40;;;;;;5114217;28;20030;-58
2022/06/04 05:22:51;;;;;;;;;;;17.40;97.30;;;;;;5114837;28;20070;-55
2022/06/04 05:25:37;;;;;;;8.15;5.82;;;17.50;97.30;;;;;;5112278;28;20024;-56
2022/06/04 05:28:21;;;;;;;7.78;6.97;;;17.60;97.20;;;;;;5098750;28;20453;-56
2022/06/04 05:31:06;;;;;;;8.82;6.38;;;17.70;97.20;;;;;;5112872;28;20085;-56
2022/06/04 05:33:50;;;;;;;7.20;5.88;;;17.70;96.90;;;;;;5114562;28;20509;-54
2022/06/04 05:36:35;;;;;;;8.82;5.95;;;17.60;97.00;;;;;;5112203;28;20030;-58
2022/06/04 05:39:20;;;;;;;6.57;5.97;;;17.50;97.30;;;;;;5113766;28;20525;-52
2022/06/04 05:42:06;;;;;;;7.07;6.35;;;17.60;97.10;;;;;;5113835;28;20525;-57
2022/06/04 05:44:52;;;;;;;6.50;5.93;;;17.70;97.00;;;;;;5131440;27;20080;-56
2022/06/04 05:47:36;;;;;;;10.80;6.80;;;17.70;96.90;;;;;;5133766;27;20038;-55
2022/06/04 05:50:20;;;;;;;6.63;5.80;;;17.60;96.90;;;;;;5118546;27;20061;-57
2022/06/04 05:53:05;;;;;;;6.88;5.82;;;17.60;96.90;;;;;;5118153;27;20041;-54
2022/06/04 05:55:49;;;;;;;6.90;5.97;;;17.50;96.80;;;;;;5133564;27;20049;-59
2022/06/04 05:58:34;;;;;;;7.28;6.30;;;17.40;97.20;;;;;;5134510;27;20042;-58
2022/06/04 06:01:20;;;;;;;7.70;6.60;;;17.40;97.60;;;;;;5134199;27;20034;-54
2022/06/04 06:04:06;;;;;;;7.80;7.00;;;17.30;97.30;;;;;;5134076;27;20042;-56
2022/06/04 06:06:52;;;;;;;11.20;7.78;;;17.40;97.40;;;;;;5134138;27;20057;-57
2022/06/04 06:09:36;;;;;;;10.50;7.10;;;17.30;97.40;;;;;;5118072;27;20073;-52
2022/06/04 06:12:21;;;;;;;8.15;7.35;;;17.30;97.30;;;;;;5118340;27;20043;-56
2022/06/04 06:15:06;;;;;;;8.68;6.75;;;17.30;97.60;;;;;;5117938;27;20112;-58
2022/06/04 06:17:53;;;;;;;10.52;7.75;;;17.30;97.60;;;;;;5118100;27;20112;-57
2022/06/04 06:20:43;;;;;;;8.02;6.63;;;17.30;97.50;;;;;;5137297;27;20089;-56
2022/06/04 06:23:27;;;;;;;10.02;7.25;;;17.20;98.00;;;;;;5137560;27;20497;-57
2022/06/04 06:26:16;;;;;;;8.05;6.68;;;17.30;97.90;;;;;;5120682;27;20043;-55
2022/06/04 06:29:04;;;;;;;7.60;6.80;;;17.50;97.70;;;;;;5122506;27;20049;-59
2022/06/04 06:31:49;;;;;;;7.25;6.55;;;17.60;97.80;;;;;;5136022;27;20095;-54
2022/06/04 06:34:33;;;;;;;8.95;6.90;;;17.70;97.70;;;;;;5118891;27;20061;-56
2022/06/04 06:37:18;;;;;;;8.77;7.07;;;17.90;97.50;;;;;;5132489;27;20049;-56
2022/06/04 06:40:04;;;;;;;8.35;7.13;;;17.80;97.60;;;;;;5133179;27;20046;-56
2022/06/04 06:42:49;;;;;;;8.68;6.90;;;17.90;97.30;;;;;;5116697;28;20090;-57
2022/06/04 06:45:33;;;;;;;7.57;6.78;;;18.00;96.70;;;;;;5131905;28;20523;-57
2022/06/04 06:48:17;;;;;;;7.15;6.50;;;18.10;96.70;;;;;;5132008;28;20754;-52
2022/06/04 06:51:07;;;;;;;10.68;6.88;;;18.10;96.80;;;;;;5133523;28;20062;-56
2022/06/04 06:53:54;;;;;;;8.07;7.05;;;18.20;96.80;;;;;;5133544;28;20103;-57
2022/06/04 06:56:41;;;;;;;10.98;7.30;;;18.30;96.60;;;;;;5132839;28;20039;-56
2022/06/04 06:59:25;;;;;;;9.32;7.10;;;18.30;96.10;;;;;;5133637;28;20358;-51
2022/06/04 07:02:10;;;;;;;6.93;6.22;;;18.30;96.40;;;;;;5119637;28;20021;-53
2022/06/04 07:04:57;;;;;;;8.20;7.15;;;18.30;96.80;;;;;;5118637;28;20057;-60
2022/06/04 07:07:42;;;;;;;9.45;6.97;;;18.40;96.40;;;;;;5132790;28;20504;-57
2022/06/04 07:10:26;;;;;;;8.10;7.30;;;18.50;96.40;;;;;;5117339;28;20034;-55
2022/06/04 07:13:10;;;;;;;7.63;6.83;;;18.50;95.90;;;;;;5133632;28;20076;-54
2022/06/04 07:15:54;;;;;;;9.00;7.22;;;18.70;95.70;;;;;;5132829;28;20877;-55
2022/06/04 07:18:42;;;;;;;8.32;7.57;;;18.70;95.50;;;;;;5118016;28;20050;-56
2022/06/04 07:21:27;;;;;;;8.73;7.10;;;18.80;95.70;;;;;;5133563;28;20040;-54
2022/06/04 07:24:11;;;;;;;8.13;7.32;;;18.80;96.00;;;;;;5117599;28;20046;-60
2022/06/04 07:26:57;;;;;;;9.18;7.78;;;19.00;95.60;;;;;;5132586;28;20034;-55
2022/06/04 07:29:41;;;;;;;9.48;7.70;;;19.20;95.40;;;;;;5117897;28;20104;-52
2022/06/04 07:32:31;;;;;;;8.43;7.63;;;19.20;95.10;;;;;;5132573;28;20065;-56
2022/06/04 07:35:18;;;;;;;10.65;8.05;;;19.20;95.20;;;;;;5134437;28;20042;-57
2022/06/04 07:38:03;;;;;;;8.75;7.90;;;19.00;95.30;;;;;;5117381;28;20050;-55
2022/06/04 07:40:47;;;;;;;8.30;7.50;;;19.10;95.30;;;;;;5134526;28;20513;-55
2022/06/04 07:43:31;;;;;;;8.50;7.72;;;19.20;95.50;;;;;;5115398;27;20549;-57
2022/06/04 07:46:16;;;;;;;8.27;7.47;;;19.50;95.20;;;;;;5093761;27;20077;-57
2022/06/04 07:49:04;;;;;;;8.40;7.63;;;19.60;94.60;;;;;;5136485;27;20045;-55
2022/06/04 07:51:58;;;;;;;8.73;7.80;;;19.70;94.40;;;;;;5137166;27;20125;-57
2022/06/04 07:54:42;;;;;;;8.77;7.60;;;19.70;94.00;;;;;;5137102;27;20038;-57
2022/06/04 07:57:26;;;;;;;;;;;19.70;93.60;;;;;;5136235;27;20030;-57
2022/06/04 08:00:11;;;;;;;9.05;7.70;;;19.60;94.20;;;;;;5138058;27;19961;-59
2022/06/04 08:02:56;;;;;;;;;;;19.50;94.40;;;;;;5137410;27;20393;-57
2022/06/04 08:05:41;;;;;;;10.68;7.72;;;19.60;94.30;;;;;;5120737;27;20435;-58
2022/06/04 08:08:25;;;;;;;11.02;7.60;;;19.70;94.10;;;;;;5139201;27;20051;-52
2022/06/04 08:14:21;;;;;;;9.48;7.97;;;19.60;94.00;;;;;;5136229;27;20095;-56
2022/06/04 08:17:06;;;;;;;10.35;7.93;;;19.80;94.00;;;;;;5135241;27;20034;-56
2022/06/04 08:19:51;;;;;;;8.68;7.80;;;19.90;93.80;;;;;;5135787;27;20034;-56
2022/06/04 08:22:36;;;;;;;10.40;7.97;;;19.80;94.10;;;;;;5135794;27;20422;-54
2022/06/04 08:25:19;;;;;;;8.85;7.75;;;19.90;93.80;;;;;;5135244;27;20034;-57
2022/06/04 08:28:04;;;;;;;9.60;7.82;;;20.10;93.50;;;;;;5135885;27;20045;-57
2022/06/04 08:31:00;;;;;;;8.82;7.85;;;20.10;93.30;;;;;;5136221;27;20570;-57
2022/06/04 08:33:45;;;;;;;7.47;6.75;;;20.30;93.20;;;;;;5137136;27;20469;-57
2022/06/04 08:36:29;;;;;;;;;;;20.40;93.00;;;;;;5135830;27;20115;-55
2022/06/04 08:39:15;;;;;;;11.25;7.70;;;20.60;93.00;;;;;;5119282;27;19998;-55
2022/06/04 08:42:08;;;;;;;8.52;7.43;;;20.70;93.00;;;;;;5125412;27;20111;-57
2022/06/04 08:45:00;;;;;;;10.30;7.57;;;20.70;92.60;;;;;;5111965;28;20031;-56
2022/06/04 08:47:48;;;;;;;12.48;7.72;;;20.60;92.80;;;;;;5114357;28;20023;-55
2022/06/04 08:50:35;;;;;;;12.80;9.95;;;20.50;92.50;;;;;;5113476;28;20550;-58
2022/06/04 08:53:24;;;;;;;9.45;7.53;;;20.60;92.70;;;;;;5114456;28;20574;-58
2022/06/04 09:00:16;;;;;;;10.07;7.60;;;20.80;92.20;;;;;;5103560;28;20038;-51
2022/06/04 09:07:35;;;;;;;8.05;7.30;;;20.60;91.70;;;;;;5070699;28;20063;-64
2022/06/04 09:10:30;;;;;;;8.88;7.05;;;20.80;91.00;;;;;;5086040;28;20034;-55
2022/06/04 09:13:21;;;;;;;;;;;20.80;90.90;;;;;;5115559;28;20057;-53
2022/06/04 09:16:21;;;;;;;7.30;6.57;;;21.00;91.10;;;;;;5116362;28;19958;-52
2022/06/04 09:19:16;;;;;;;7.80;6.93;;;21.10;90.60;;;;;;5114352;28;20027;-58
2022/06/04 09:22:03;;;;;;;7.70;6.18;;;21.10;90.50;;;;;;5114587;28;20026;-56
2022/06/04 09:24:48;;;;;;;9.38;6.70;;;21.20;90.20;;;;;;5113673;28;20038;-54
2022/06/04 09:27:57;;;;;;;7.20;6.50;;;21.40;90.20;;;;;;5113967;28;20027;-53
2022/06/04 09:30:51;;;;;;;6.82;6.10;;;21.50;89.00;;;;;;5113794;28;20035;-50
2022/06/04 09:33:57;;;;;;;7.37;6.07;;;21.70;89.10;;;;;;5114087;28;20027;-50
2022/06/04 09:36:46;;;;;;;8.80;6.35;;;21.50;89.50;;;;;;5113381;28;20366;-53
2022/06/04 09:39:36;;;;;;;6.63;6.03;;;21.70;89.40;;;;;;5112485;28;20518;-53
2022/06/04 09:42:29;;;;;;;8.45;7.15;;;21.90;88.80;;;;;;5113787;28;20160;-59
2022/06/04 09:45:26;;;;;;;11.68;6.78;;;22.10;87.90;;;;;;5125942;27;20528;-55
2022/06/04 09:48:21;;;;;;;7.70;6.78;;;22.10;87.50;;;;;;5134165;27;20046;-55
2022/06/04 09:51:14;;;;;;;8.45;6.80;;;22.40;87.00;;;;;;5134364;27;20108;-56
2022/06/04 09:54:05;;;;;;;7.47;6.25;;;22.30;86.80;;;;;;5133803;27;20083;-54
2022/06/04 09:56:53;;;;;;;10.52;7.25;;;22.30;86.40;;;;;;5133387;27;20042;-60
2022/06/04 09:59:38;;;;;;;8.95;7.50;;;22.20;86.30;;;;;;5133708;27;20029;-58
2022/06/04 10:02:22;;;;;;;8.50;7.07;;;22.10;85.90;;;;;;5134017;27;20106;-52
2022/06/04 10:05:18;;;;;;;7.43;6.65;;;22.10;86.30;;;;;;5103240;27;20092;-60
2022/06/04 10:08:13;;;;;;;8.00;6.43;;;22.30;85.70;;;;;;5133862;27;20089;-50
2022/06/04 10:11:01;;;;;;;8.45;7.13;;;22.20;85.90;;;;;;5133651;27;20025;-52
2022/06/04 10:13:49;;;;;;;7.88;7.15;;;22.50;85.40;;;;;;5117888;27;20058;-51
2022/06/04 10:16:36;;;;;;;7.30;6.60;;;22.50;85.20;;;;;;5132924;27;20057;-51
2022/06/04 10:19:23;;;;;;;7.20;6.50;;;22.60;85.00;;;;;;5133379;27;20111;-54
2022/06/04 10:22:13;;;;;;;7.38;6.60;;;22.60;85.20;;;;;;5134279;27;20046;-54
2022/06/04 10:25:03;;;;;;;6.90;6.18;;;22.70;84.70;;;;;;5134047;27;20026;-53
2022/06/04 10:28:11;;;;;;;7.13;6.50;;;23.00;85.30;;;;;;5117812;27;20084;-49
2022/06/04 10:31:11;;;;;;;6.57;5.95;;;23.10;84.00;;;;;;5135452;27;20134;-54
2022/06/04 10:34:07;;;;;;;6.82;6.13;;;23.20;84.20;;;;;;5138113;27;20069;-53
2022/06/04 10:37:15;;;;;;;7.28;6.57;;;23.10;83.20;;;;;;5138847;27;20086;-54
2022/06/04 10:40:30;;;;;;;7.78;6.57;;;22.90;83.30;;;;;;5133140;27;20030;-54
2022/06/04 10:43:22;;;;;;;7.50;6.78;;;22.80;83.80;;;;;;5108057;28;20092;-55
2022/06/04 10:46:32;;;;;;;6.93;6.22;;;22.90;83.90;;;;;;5112313;28;20042;-53
2022/06/04 10:49:41;;;;;;;7.82;6.03;;;23.30;82.70;;;;;;5112599;28;20074;-53
2022/06/04 10:52:41;;;;;;;8.52;5.55;;;23.40;82.60;;;;;;5113409;28;20057;-55
2022/06/04 10:55:50;;;;;;;7.15;6.45;;;23.80;82.30;;;;;;5112382;28;20042;-52
2022/06/04 10:58:40;;;;;;;6.88;5.50;;;23.70;80.20;;;;;;5112282;28;20078;-54
2022/06/04 11:01:37;;;;;;;9.38;5.63;;;23.50;80.40;;;;;;5112491;28;20101;-51
2022/06/04 11:04:41;;;;;;;6.63;5.93;;;23.80;80.60;;;;;;5112250;28;20035;-52
2022/06/04 11:07:40;;;;;;;10.30;7.45;;;23.90;79.90;;;;;;5111800;28;20111;-53
2022/06/04 11:10:35;;;;;;;7.47;5.95;;;23.90;79.30;;;;;;5113201;28;20034;-54
2022/06/04 11:13:38;;;;;;;8.45;6.35;;;24.00;79.60;;;;;;5112702;28;20030;-50
2022/06/04 11:16:50;;;;;;;6.53;5.93;;;24.30;78.40;;;;;;5112210;28;20027;-52
2022/06/04 11:20:33;;;;;;;7.88;5.75;;;24.20;79.00;;;;;;5117160;28;20070;-54
2022/06/04 11:23:34;;;;;;;7.22;5.93;;;24.70;78.30;;;;;;5080753;28;20074;-50
2022/06/04 11:26:27;;;;;;;9.38;6.20;;;24.50;77.00;;;;;;5115014;28;20046;-55
2022/06/04 11:29:12;;;;;;;8.07;6.65;;;24.10;78.50;;;;;;5115915;28;20043;-51
2022/06/04 11:32:25;;;;;;;8.82;5.93;;;24.10;78.20;;;;;;5115850;28;20082;-49
2022/06/04 11:35:25;;;;;;;7.72;6.72;;;23.90;78.00;;;;;;5115947;28;20030;-57
2022/06/04 11:38:40;;;;;;;6.57;5.95;;;24.00;79.00;;;;;;5116662;28;20034;-55
2022/06/04 11:42:04;;;;;;;6.80;6.15;;;24.30;78.80;;;;;;5116758;28;20027;-56
2022/06/04 11:45:19;;;;;;;6.72;6.03;;;24.40;77.60;;;;;;5113910;28;20078;-56
2022/06/04 11:48:18;;;;;;;7.65;6.18;;;24.30;77.20;;;;;;5116798;28;20575;-54
2022/06/04 11:51:15;;;;;;;7.20;5.60;;;24.20;78.00;;;;;;5115856;28;20470;-49
2022/06/04 11:54:38;;;;;;;8.05;5.60;;;24.30;77.30;;;;;;5115399;28;20099;-52
2022/06/04 11:57:41;;;;;;;7.50;5.75;;;24.30;77.60;;;;;;5088695;28;20118;-54
2022/06/04 12:00:39;;;;;;;8.05;6.18;;;24.40;77.80;;;;;;5115260;28;20042;-51
2022/06/04 12:03:51;;;;;;;6.20;5.60;;;24.60;76.40;;;;;;5114972;28;20528;-50
2022/06/04 12:06:43;;;;;;;6.10;5.50;;;24.50;77.20;;;;;;5113934;28;20070;-49
2022/06/04 12:09:45;;;;;;;6.30;5.70;;;24.60;77.40;;;;;;5116457;28;20030;-53
2022/06/04 12:12:39;;;;;;;9.27;6.20;;;24.60;76.90;;;;;;5114762;28;20081;-52
2022/06/04 12:15:34;;;;;;;;;;;24.50;76.50;;;;;;5115162;28;20035;-51
2022/06/04 12:19:05;;;;;;;6.22;5.55;;;24.50;76.40;;;;;;5114803;28;19953;-48
2022/06/04 12:24:58;;;;;;;7.40;5.90;;;24.60;76.00;;;;;;5114890;28;20844;-50
2022/06/04 12:28:03;;;;;;;6.28;5.68;;;24.50;76.20;;;;;;5113478;28;20022;-47
2022/06/04 12:30:47;;;;;;;;;;;24.40;76.80;;;;;;5115266;28;20026;-51
2022/06/04 12:33:34;;;;;;;6.40;5.80;;;24.10;76.50;;;;;;5113502;28;20003;-50
2022/06/04 12:36:37;;;;;;;8.95;5.47;;;24.30;76.60;;;;;;5114531;28;20406;-50
2022/06/04 12:39:27;;;;;;;6.68;5.57;;;24.40;75.90;;;;;;5113316;28;20093;-55
2022/06/04 12:42:29;;;;;;;7.40;5.85;;;24.20;75.60;;;;;;5108318;28;20394;-54
2022/06/04 12:45:39;;;;;;;7.13;5.95;;;24.10;75.60;;;;;;5126366;27;20034;-56
2022/06/04 12:48:37;;;;;;;7.70;6.47;;;24.10;75.70;;;;;;5134174;27;20137;-48
2022/06/04 12:51:34;;;;;;;6.55;5.95;;;24.20;75.30;;;;;;5135008;27;20547;-57
2022/06/04 12:54:34;;;;;;;5.00;4.60;;;24.20;74.60;;;;;;5136042;27;20029;-53
2022/06/04 12:57:28;;;;;;;6.28;5.28;;;24.40;75.00;;;;;;5135500;27;20033;-51
2022/06/04 13:00:19;;;;;;;;;;;24.70;73.90;;;;;;5135713;27;20072;-53
2022/06/04 13:03:06;;;;;;;5.50;4.93;;;24.80;72.70;;;;;;5135796;27;19910;-49
2022/06/04 13:06:02;;;;;;;6.80;5.43;;;25.00;73.60;;;;;;5135268;27;20076;-51
2022/06/04 13:09:15;;;;;;;6.75;5.95;;;25.20;72.90;;;;;;5135499;27;20030;-51
2022/06/04 13:12:24;;;;;;;7.18;5.93;;;25.20;72.50;;;;;;5135147;27;20061;-56
2022/06/04 13:15:29;;;;;;;6.22;5.63;;;25.00;72.10;;;;;;5134593;27;20505;-50
2022/06/04 13:18:25;;;;;;;5.95;5.35;;;25.10;72.10;;;;;;5134441;27;20069;-53
2022/06/04 13:21:18;;;;;;;5.90;5.20;;;25.00;72.30;;;;;;5135149;27;20436;-51
2022/06/04 13:24:05;;;;;;;5.70;5.20;;;25.20;72.00;;;;;;5134834;27;20091;-50
2022/06/04 13:26:56;;;;;;;8.77;5.78;;;25.70;71.20;;;;;;5134417;27;20410;-52
2022/06/04 13:29:40;;;;;;;5.40;4.90;;;26.00;70.50;;;;;;5134961;27;20517;-52
2022/06/04 13:32:25;;;;;;;5.70;4.72;;;26.10;69.00;;;;;;5134924;27;20159;-49
2022/06/04 13:35:19;;;;;;;5.80;4.95;;;26.10;68.00;;;;;;5134659;27;20042;-56
2022/06/04 13:38:09;;;;;;;6.20;5.07;;;26.20;67.60;;;;;;5134386;27;20050;-56
2022/06/04 13:41:02;;;;;;;6.05;4.93;;;26.40;67.40;;;;;;5132688;27;20027;-54
2022/06/04 13:43:47;;;;;;;5.57;4.65;;;26.30;67.10;;;;;;5122164;27;20547;-56
2022/06/04 13:46:32;;;;;;;5.72;4.40;;;26.20;67.70;;;;;;5133683;27;20062;-58
2022/06/04 13:49:26;;;;;;;5.47;4.97;;;26.30;67.60;;;;;;5134834;27;20034;-57
2022/06/04 13:52:14;;;;;;;6.35;4.63;;;26.20;66.60;;;;;;5134695;27;20054;-56
2022/06/04 13:55:04;;;;;;;6.57;5.25;;;25.70;67.10;;;;;;5135350;27;20084;-57
2022/06/04 13:58:34;;;;;;;5.60;5.00;;;25.60;67.80;;;;;;5134486;27;20061;-58
2022/06/04 14:01:37;;;;;;;5.70;5.20;;;25.90;67.10;;;;;;5134726;27;20066;-56
2022/06/04 14:07:34;;;;;;;6.13;5.10;;;26.70;65.60;;;;;;5135357;27;20065;-57
2022/06/04 14:10:22;;;;;;;5.40;4.90;;;26.30;65.70;;;;;;5134326;27;20041;-55
2022/06/04 14:13:08;;;;;;;5.32;4.93;;;26.30;66.10;;;;;;5134417;27;20116;-55
2022/06/04 14:16:20;;;;;;;6.93;5.03;;;26.10;65.80;;;;;;5133982;27;20120;-57
2022/06/04 14:19:13;;;;;;;5.10;4.70;;;26.00;67.00;;;;;;5134018;27;20026;-57
2022/06/04 14:22:04;;;;;;;5.40;4.90;;;26.00;65.40;;;;;;5134336;27;20069;-58
2022/06/04 14:25:20;;;;;;;5.30;4.80;;;25.80;66.40;;;;;;5134317;27;20073;-58
2022/06/04 14:28:14;;;;;;;5.25;4.60;;;25.80;67.20;;;;;;5117968;27;20065;-57
2022/06/04 14:31:32;;;;;;;5.22;4.72;;;25.70;67.10;;;;;;5133390;27;20030;-58
2022/06/04 14:34:18;;;;;;;6.32;5.15;;;26.00;67.60;;;;;;5133425;27;20029;-57
2022/06/04 14:37:03;;;;;;;6.47;4.63;;;26.20;66.90;;;;;;5133025;27;20104;-56
2022/06/04 14:39:48;;;;;;;5.78;5.00;;;26.30;66.70;;;;;;5133587;27;20065;-55
2022/06/04 14:42:57;;;;;;;7.13;5.15;;;26.50;66.50;;;;;;5118120;27;20035;-56
2022/06/04 14:45:42;;;;;;;7.03;5.20;;;26.70;66.30;;;;;;5128131;27;20065;-57
2022/06/04 14:48:52;;;;;;;6.18;4.25;;;26.70;66.10;;;;;;5133275;28;20073;-56
2022/06/04 14:51:39;;;;;;;6.10;5.50;;;26.70;65.40;;;;;;5135298;27;20042;-56
2022/06/04 14:54:25;;;;;;;8.60;5.03;;;26.80;65.30;;;;;;5133824;28;20046;-55
2022/06/04 14:57:49;;;;;;;5.13;4.47;;;27.00;65.10;;;;;;5117387;28;20111;-55
2022/06/04 15:00:55;;;;;;;5.75;5.25;;;26.90;65.50;;;;;;5095351;28;20070;-54
2022/06/04 15:04:22;;;;;;;6.43;5.20;;;27.10;65.50;;;;;;5133329;28;20410;-50
2022/06/04 15:07:30;;;;;;;8.43;4.65;;;27.60;65.20;;;;;;5131459;28;20034;-56
2022/06/04 15:10:41;;;;;;;5.22;4.72;;;27.30;64.20;;;;;;5133400;28;20038;-57
2022/06/04 15:13:31;;;;;;;5.13;4.68;;;27.20;63.70;;;;;;5133328;28;20547;-57
2022/06/04 15:16:45;;;;;;;6.45;4.57;;;27.10;63.70;;;;;;5132340;28;20026;-55
2022/06/04 15:19:56;;;;;;;7.03;4.88;;;27.40;63.90;;;;;;5132710;28;20034;-54
2022/06/04 15:23:02;;;;;;;5.15;4.65;;;27.90;63.10;;;;;;5133372;28;20066;-57